EDDH Airport Information

Runway Information
Runway 05 Length 10663 ft width 150 ft
Elevation 32 ft Threshold 978 ft Heading 50
Runway 23 Length 10663 ft Width 150 ft
Elevation 43 ft Threshold 512 ft Heading 230
Runway 15 Length 12028 ft width 150 ft
Elevation 53 ft Threshold 0 ft Heading 153
Runway 33 Length 12028 ft Width 150 ft
Elevation 35 ft Threshold 1464 ft Heading 333
Airport Frequencies
Type ATIS Name ATIS Frequency 123.125 MHZ
Type DIR Name DIRECTOR Frequency 118.2 MHZ
Type GND Name GND Frequency 121.8 MHZ
Type RDR Name BREMEN RAD Frequency 134.25 MHZ
Type RMP Name APRON Frequency 121.7 MHZ
Type TWR Name TWR Frequency 126.85 MHZ
Airport Navaids
Type DME Name Alster Frequency 115800 KHZ
Type NDB Name Hamburg West Frequency 351 KHZ
Type NDB Name Hamburg North Frequency 323 KHZ
Type VORTAC Name Hamburg Frequency 113100 KHZ
Type NDB Name Hamburg Frequency 339 KHZ
Airport Weather Information & NOTAM
ADDS - METARS form results

(1456 UTC 22 July 2018)
 
METAR text: EDDH 221450Z 28013KT 260V320 CAVOK 25/15 Q1013 NOSIG
Conditions at: EDDH (HAMBURG/FUHLSBUT, DE) observed 1450 UTC 22 July 2018
Temperature: 25.0°C (77°F)
Dewpoint: 15.0°C (59°F) [RH = 54%]
Pressure (altimeter): 29.91 inches Hg (1013.0 mb)
Winds: from the W (280 degrees) at 15 MPH (13 knots; 6.8 m/s)
Visibility: 6 or more miles (10+ km)
Ceiling: ceiling and visibility are OK
Clouds: unknown
Weather: no significant weather observed at this time

METAR text: EDDH 221420Z 30014KT 260V330 CAVOK 26/12 Q1012 NOSIG
Conditions at: EDDH (HAMBURG/FUHLSBUT, DE) observed 1420 UTC 22 July 2018
Temperature: 26.0°C (79°F)
Dewpoint: 12.0°C (54°F) [RH = 42%]
Pressure (altimeter): 29.88 inches Hg (1012.0 mb)
Winds: from the WNW (300 degrees) at 16 MPH (14 knots; 7.3 m/s)
Visibility: 6 or more miles (10+ km)
Ceiling: ceiling and visibility are OK
Clouds: unknown
Weather: no significant weather observed at this time